sensor_id;sensor_type;location;lat;lon;timestamp;pressure;altitude;pressure_sealevel;temperature;humidity
62680;BME280;68213;40.528;44.712;2023-04-27T00:41:24;80348.53;;;3.85;65.60
62680;BME280;68213;40.528;44.712;2023-04-27T00:42:25;80351.28;;;3.87;65.96
62680;BME280;68213;40.528;44.712;2023-04-27T00:43:26;80352.66;;;3.88;65.95
62680;BME280;68213;40.528;44.712;2023-04-27T00:44:27;80336.56;;;3.62;65.70
62680;BME280;68213;40.528;44.712;2023-04-27T00:45:27;80356.72;;;3.71;65.99
62680;BME280;68213;40.528;44.712;2023-04-27T00:46:28;80356.81;;;3.63;66.71
62680;BME280;68213;40.528;44.712;2023-04-27T00:47:29;80362.47;;;3.70;66.91
62680;BME280;68213;40.528;44.712;2023-04-27T00:48:30;80354.66;;;3.70;67.05
62680;BME280;68213;40.528;44.712;2023-04-27T00:49:31;80368.63;;;3.74;66.73
62680;BME280;68213;40.528;44.712;2023-04-27T00:50:32;80366.16;;;3.76;66.44
62680;BME280;68213;40.528;44.712;2023-04-27T00:51:33;80351.66;;;3.73;66.24
62680;BME280;68213;40.528;44.712;2023-04-27T00:52:37;80364.00;;;3.83;65.77
62680;BME280;68213;40.528;44.712;2023-04-27T00:53:38;80358.13;;;3.82;65.97
62680;BME280;68213;40.528;44.712;2023-04-27T00:54:40;80358.25;;;3.84;65.70
62680;BME280;68213;40.528;44.712;2023-04-27T00:55:41;80358.94;;;3.85;65.56
62680;BME280;68213;40.528;44.712;2023-04-27T00:56:42;80360.47;;;3.88;65.45
62680;BME280;68213;40.528;44.712;2023-04-27T00:57:43;80360.47;;;3.88;65.17
62680;BME280;68213;40.528;44.712;2023-04-27T00:58:46;80364.59;;;3.91;65.01
62680;BME280;68213;40.528;44.712;2023-04-27T00:59:46;80359.41;;;3.91;65.19
62680;BME280;68213;40.528;44.712;2023-04-27T01:00:47;80355.41;;;3.90;65.03
62680;BME280;68213;40.528;44.712;2023-04-27T01:01:48;80347.16;;;3.84;65.10
62680;BME280;68213;40.528;44.712;2023-04-27T01:02:51;80356.78;;;3.91;65.15
62680;BME280;68213;40.528;44.712;2023-04-27T01:03:52;80333.47;;;3.73;65.14
62680;BME280;68213;40.528;44.712;2023-04-27T01:04:53;80358.03;;;3.90;64.97
62680;BME280;68213;40.528;44.712;2023-04-27T01:05:55;80352.91;;;3.82;65.15
62680;BME280;68213;40.528;44.712;2023-04-27T01:06:56;80355.38;;;3.80;65.53
62680;BME280;68213;40.528;44.712;2023-04-27T01:07:58;80355.91;;;3.78;65.80
62680;BME280;68213;40.528;44.712;2023-04-27T01:08:59;80362.34;;;3.77;65.74
62680;BME280;68213;40.528;44.712;2023-04-27T01:10:00;80357.00;;;3.75;65.79
62680;BME280;68213;40.528;44.712;2023-04-27T01:11:01;80355.75;;;3.76;65.58
62680;BME280;68213;40.528;44.712;2023-04-27T01:12:01;80355.47;;;3.72;66.18
62680;BME280;68213;40.528;44.712;2023-04-27T01:13:02;80360.84;;;3.74;66.07
62680;BME280;68213;40.528;44.712;2023-04-27T01:14:04;80358.91;;;3.75;66.12
62680;BME280;68213;40.528;44.712;2023-04-27T01:15:06;80360.28;;;3.76;66.05
62680;BME280;68213;40.528;44.712;2023-04-27T01:16:07;80359.88;;;3.79;66.25
62680;BME280;68213;40.528;44.712;2023-04-27T01:17:09;80360.03;;;3.81;66.55
62680;BME280;68213;40.528;44.712;2023-04-27T01:18:10;80358.13;;;3.82;66.51
62680;BME280;68213;40.528;44.712;2023-04-27T01:19:11;80359.88;;;3.79;66.08
62680;BME280;68213;40.528;44.712;2023-04-27T01:20:11;80359.22;;;3.79;66.10
62680;BME280;68213;40.528;44.712;2023-04-27T01:21:12;80359.63;;;3.75;65.84
62680;BME280;68213;40.528;44.712;2023-04-27T01:22:13;80359.63;;;3.75;66.06
62680;BME280;68213;40.528;44.712;2023-04-27T02:32:35;80375.38;;;3.87;69.48
62680;BME280;68213;40.528;44.712;2023-04-27T02:33:36;80370.47;;;3.91;69.67
62680;BME280;68213;40.528;44.712;2023-04-27T02:34:36;80371.44;;;3.96;69.13
62680;BME280;68213;40.528;44.712;2023-04-27T02:35:37;80373.25;;;4.03;68.86
62680;BME280;68213;40.528;44.712;2023-04-27T02:36:39;80377.66;;;4.10;68.78
62680;BME280;68213;40.528;44.712;2023-04-27T02:37:39;80369.84;;;4.10;68.39
62680;BME280;68213;40.528;44.712;2023-04-27T02:38:40;80371.22;;;4.11;68.23
62680;BME280;68213;40.528;44.712;2023-04-27T02:39:41;80370.44;;;4.19;67.64
62680;BME280;68213;40.528;44.712;2023-04-27T02:40:41;80372.78;;;4.24;67.35
62680;BME280;68213;40.528;44.712;2023-04-27T02:41:42;80378.25;;;4.28;67.01
62680;BME280;68213;40.528;44.712;2023-04-27T02:42:43;80375.38;;;4.34;66.91
62680;BME280;68213;40.528;44.712;2023-04-27T02:43:43;80378.97;;;4.39;66.60
62680;BME280;68213;40.528;44.712;2023-04-27T02:44:46;80379.78;;;4.41;66.45
62680;BME280;68213;40.528;44.712;2023-04-27T02:45:47;80376.78;;;4.45;66.48
62680;BME280;68213;40.528;44.712;2023-04-27T02:46:48;80352.78;;;4.27;66.37
62680;BME280;68213;40.528;44.712;2023-04-27T02:47:49;80380.34;;;4.50;65.89
62680;BME280;68213;40.528;44.712;2023-04-27T02:48:50;80383.78;;;4.52;65.73
62680;BME280;68213;40.528;44.712;2023-04-27T02:49:51;80356.06;;;4.37;65.61
62680;BME280;68213;40.528;44.712;2023-04-27T02:50:52;80385.16;;;4.53;65.58
62680;BME280;68213;40.528;44.712;2023-04-27T02:51:53;80383.22;;;4.54;66.05
62680;BME280;68213;40.528;44.712;2023-04-27T02:52:53;80384.47;;;4.53;66.11
62680;BME280;68213;40.528;44.712;2023-04-27T02:53:54;80385.97;;;4.56;66.06
62680;BME280;68213;40.528;44.712;2023-04-27T02:54:55;80392.69;;;4.59;66.45
62680;BME280;68213;40.528;44.712;2023-04-27T02:55:56;80390.78;;;4.59;66.75
62680;BME280;68213;40.528;44.712;2023-04-27T02:56:58;80380.78;;;4.56;66.46
62680;BME280;68213;40.528;44.712;2023-04-27T02:57:59;80397.78;;;4.67;65.72
62680;BME280;68213;40.528;44.712;2023-04-27T02:59:00;80397.38;;;4.70;65.37
62680;BME280;68213;40.528;44.712;2023-04-27T03:00:00;80396.25;;;4.73;65.63
62680;BME280;68213;40.528;44.712;2023-04-27T03:01:01;80394.63;;;4.78;65.00
62680;BME280;68213;40.528;44.712;2023-04-27T03:22:23;80397.13;;;4.86;67.46
62680;BME280;68213;40.528;44.712;2023-04-27T03:23:24;80404.94;;;4.86;67.30
62680;BME280;68213;40.528;44.712;2023-04-27T03:24:26;80399.72;;;4.86;67.79
62680;BME280;68213;40.528;44.712;2023-04-27T03:25:27;80399.31;;;4.89;67.89
62680;BME280;68213;40.528;44.712;2023-04-27T03:26:28;80338.16;;;4.41;67.95
62680;BME280;68213;40.528;44.712;2023-04-27T03:27:29;80404.66;;;4.91;67.92
62680;BME280;68213;40.528;44.712;2023-04-27T03:28:30;80398.91;;;4.93;68.23
62680;BME280;68213;40.528;44.712;2023-04-27T03:29:31;80399.88;;;4.98;67.89
62680;BME280;68213;40.528;44.712;2023-04-27T03:30:31;80392.59;;;4.96;68.04
62680;BME280;68213;40.528;44.712;2023-04-27T03:31:32;80389.31;;;4.96;68.12
62680;BME280;68213;40.528;44.712;2023-04-27T03:32:33;80391.63;;;4.91;68.58
62680;BME280;68213;40.528;44.712;2023-04-27T03:33:34;80387.53;;;4.79;69.20
62680;BME280;68213;40.528;44.712;2023-04-27T03:34:35;80389.31;;;4.86;69.20
62680;BME280;68213;40.528;44.712;2023-04-27T03:35:36;80390.53;;;4.95;68.97
62680;BME280;68213;40.528;44.712;2023-04-27T03:36:36;80386.44;;;5.01;67.88
62680;BME280;68213;40.528;44.712;2023-04-27T03:37:37;80395.22;;;5.06;67.98
62680;BME280;68213;40.528;44.712;2023-04-27T03:38:38;80395.75;;;5.14;67.73
62680;BME280;68213;40.528;44.712;2023-04-27T03:39:39;80379.16;;;5.10;67.44
62680;BME280;68213;40.528;44.712;2023-04-27T03:40:40;80394.66;;;5.27;67.06
62680;BME280;68213;40.528;44.712;2023-04-27T03:41:52;80392.44;;;5.33;66.68
62680;BME280;68213;40.528;44.712;2023-04-27T03:42:53;80398.22;;;5.42;66.57
62680;BME280;68213;40.528;44.712;2023-04-27T03:43:53;80397.38;;;5.49;68.02
62680;BME280;68213;40.528;44.712;2023-04-27T03:44:54;80399.16;;;5.56;67.81
62680;BME280;68213;40.528;44.712;2023-04-27T03:45:55;80400.09;;;5.61;67.22
62680;BME280;68213;40.528;44.712;2023-04-27T03:46:56;80384.47;;;5.51;66.58
62680;BME280;68213;40.528;44.712;2023-04-27T03:47:56;80400.09;;;5.70;66.07
62680;BME280;68213;40.528;44.712;2023-04-27T03:48:57;80407.22;;;5.80;65.96
62680;BME280;68213;40.528;44.712;2023-04-27T03:49:58;80403.94;;;5.79;65.73
62680;BME280;68213;40.528;44.712;2023-04-27T03:51:01;80409.13;;;5.89;65.94
62680;BME280;68213;40.528;44.712;2023-04-27T03:52:03;80414.72;;;5.95;65.88
62680;BME280;68213;40.528;44.712;2023-04-27T03:53:03;80393.19;;;5.85;65.74
62680;BME280;68213;40.528;44.712;2023-04-27T03:54:04;80415.53;;;6.08;65.44
62680;BME280;68213;40.528;44.712;2023-04-27T03:55:05;80414.03;;;6.14;65.24
62680;BME280;68213;40.528;44.712;2023-04-27T03:56:06;80398.78;;;6.11;65.00
62680;BME280;68213;40.528;44.712;2023-04-27T03:57:07;80418.38;;;6.31;64.34
62680;BME280;68213;40.528;44.712;2023-04-27T03:58:09;80417.50;;;6.39;64.21
62680;BME280;68213;40.528;44.712;2023-04-27T03:59:10;80411.88;;;6.42;64.09
62680;BME280;68213;40.528;44.712;2023-04-27T04:00:11;80411.72;;;6.50;64.35
62680;BME280;68213;40.528;44.712;2023-04-27T04:01:12;80416.56;;;6.44;64.96
62680;BME280;68213;40.528;44.712;2023-04-27T04:02:14;80405.34;;;6.53;64.45
62680;BME280;68213;40.528;44.712;2023-04-27T04:03:14;80402.47;;;6.59;63.99
62680;BME280;68213;40.528;44.712;2023-04-27T04:04:15;80396.56;;;6.58;64.07
62680;BME280;68213;40.528;44.712;2023-04-27T04:05:17;80404.88;;;6.66;63.82
62680;BME280;68213;40.528;44.712;2023-04-27T04:06:17;80408.88;;;6.67;64.37
62680;BME280;68213;40.528;44.712;2023-04-27T04:07:18;80399.94;;;6.71;64.77
62680;BME280;68213;40.528;44.712;2023-04-27T04:08:20;80402.16;;;6.64;64.79
62680;BME280;68213;40.528;44.712;2023-04-27T04:09:20;80400.06;;;6.73;64.58
62680;BME280;68213;40.528;44.712;2023-04-27T04:10:21;80400.59;;;6.71;64.92
62680;BME280;68213;40.528;44.712;2023-04-27T04:11:22;80372.09;;;6.54;64.42
62680;BME280;68213;40.528;44.712;2023-04-27T04:12:23;80399.88;;;6.80;64.33
62680;BME280;68213;40.528;44.712;2023-04-27T04:13:23;80393.78;;;6.88;64.68
62680;BME280;68213;40.528;44.712;2023-04-27T04:14:24;80398.28;;;6.97;64.01
62680;BME280;68213;40.528;44.712;2023-04-27T04:15:25;80397.09;;;7.10;63.58
62680;BME280;68213;40.528;44.712;2023-04-27T04:16:28;80397.47;;;7.16;63.29
62680;BME280;68213;40.528;44.712;2023-04-27T04:17:29;80399.66;;;7.20;63.12
62680;BME280;68213;40.528;44.712;2023-04-27T04:18:30;80400.94;;;7.30;62.86
62680;BME280;68213;40.528;44.712;2023-04-27T04:19:32;80399.28;;;7.35;62.62
62680;BME280;68213;40.528;44.712;2023-04-27T04:20:34;80383.66;;;7.25;62.05
62680;BME280;68213;40.528;44.712;2023-04-27T04:21:35;80399.78;;;7.43;62.72
62680;BME280;68213;40.528;44.712;2023-04-27T04:22:36;80403.63;;;7.42;62.45
62680;BME280;68213;40.528;44.712;2023-04-27T04:23:39;80401.69;;;7.43;62.86
62680;BME280;68213;40.528;44.712;2023-04-27T04:24:45;80405.50;;;7.52;61.73
62680;BME280;68213;40.528;44.712;2023-04-27T04:25:45;80406.41;;;7.56;61.63
62680;BME280;68213;40.528;44.712;2023-04-27T04:26:47;80403.47;;;7.62;61.58
62680;BME280;68213;40.528;44.712;2023-04-27T04:27:48;80408.41;;;7.46;62.38
62680;BME280;68213;40.528;44.712;2023-04-27T04:28:48;80394.97;;;7.40;62.27
62680;BME280;68213;40.528;44.712;2023-04-27T04:29:49;80406.78;;;7.62;61.80
62680;BME280;68213;40.528;44.712;2023-04-27T04:30:50;80407.94;;;7.71;62.32
62680;BME280;68213;40.528;44.712;2023-04-27T04:31:51;80402.00;;;7.59;61.73
62680;BME280;68213;40.528;44.712;2023-04-27T04:32:52;80412.91;;;7.67;61.94
62680;BME280;68213;40.528;44.712;2023-04-27T04:33:54;80407.53;;;7.53;61.71
62680;BME280;68213;40.528;44.712;2023-04-27T04:34:55;80387.41;;;7.56;62.05
62680;BME280;68213;40.528;44.712;2023-04-27T04:35:56;80408.75;;;7.74;61.49
62680;BME280;68213;40.528;44.712;2023-04-27T04:36:58;80412.25;;;7.67;62.14
62680;BME280;68213;40.528;44.712;2023-04-27T04:37:59;80408.91;;;7.54;62.06
62680;BME280;68213;40.528;44.712;2023-04-27T04:39:00;80412.13;;;7.65;61.92
62680;BME280;68213;40.528;44.712;2023-04-27T04:40:03;80397.31;;;7.57;62.06
62680;BME280;68213;40.528;44.712;2023-04-27T04:41:08;80414.47;;;7.82;61.70
62680;BME280;68213;40.528;44.712;2023-04-27T04:42:09;80410.84;;;7.87;60.83
62680;BME280;68213;40.528;44.712;2023-04-27T04:43:10;80408.47;;;7.91;61.36
62680;BME280;68213;40.528;44.712;2023-04-27T04:44:11;80339.19;;;7.47;61.01
62680;BME280;68213;40.528;44.712;2023-04-27T04:45:12;80401.34;;;8.04;61.10
62680;BME280;68213;40.528;44.712;2023-04-27T04:46:13;80403.84;;;8.14;60.69
62680;BME280;68213;40.528;44.712;2023-04-27T04:47:14;80412.06;;;8.20;60.32
62680;BME280;68213;40.528;44.712;2023-04-27T04:48:15;80405.78;;;8.13;60.53
62680;BME280;68213;40.528;44.712;2023-04-27T04:49:16;80400.56;;;8.13;61.26
62680;BME280;68213;40.528;44.712;2023-04-27T04:50:16;80389.13;;;7.97;61.29
62680;BME280;68213;40.528;44.712;2023-04-27T04:51:17;80387.78;;;8.07;61.46
62680;BME280;68213;40.528;44.712;2023-04-27T04:52:18;80406.50;;;8.25;61.21
62680;BME280;68213;40.528;44.712;2023-04-27T04:53:19;80398.38;;;8.09;61.20
62680;BME280;68213;40.528;44.712;2023-04-27T04:54:20;80406.13;;;8.07;61.50
62680;BME280;68213;40.528;44.712;2023-04-27T04:55:20;80395.66;;;8.19;60.84
62680;BME280;68213;40.528;44.712;2023-04-27T04:56:21;80401.47;;;8.18;61.10
62680;BME280;68213;40.528;44.712;2023-04-27T04:57:22;80407.41;;;8.30;61.05
62680;BME280;68213;40.528;44.712;2023-04-27T04:58:23;80395.91;;;8.35;60.65
62680;BME280;68213;40.528;44.712;2023-04-27T04:59:24;80406.84;;;8.32;61.30
62680;BME280;68213;40.528;44.712;2023-04-27T05:00:24;80402.31;;;8.44;60.14
62680;BME280;68213;40.528;44.712;2023-04-27T05:01:25;80405.03;;;8.46;60.85
62680;BME280;68213;40.528;44.712;2023-04-27T05:02:26;80400.75;;;8.51;60.77
62680;BME280;68213;40.528;44.712;2023-04-27T05:03:28;80401.19;;;8.47;60.68
62680;BME280;68213;40.528;44.712;2023-04-27T05:04:28;80405.22;;;8.60;61.06
62680;BME280;68213;40.528;44.712;2023-04-27T05:05:29;80397.78;;;8.56;60.44
62680;BME280;68213;40.528;44.712;2023-04-27T05:06:30;80404.28;;;8.67;60.66
62680;BME280;68213;40.528;44.712;2023-04-27T05:07:32;80397.69;;;8.54;59.86
62680;BME280;68213;40.528;44.712;2023-04-27T05:08:33;80400.97;;;8.79;59.12
62680;BME280;68213;40.528;44.712;2023-04-27T05:09:34;80392.31;;;8.76;57.54
62680;BME280;68213;40.528;44.712;2023-04-27T05:10:35;80404.31;;;8.91;57.35
62680;BME280;68213;40.528;44.712;2023-04-27T05:11:35;80399.41;;;8.97;56.74
62680;BME280;68213;40.528;44.712;2023-04-27T05:12:36;80402.22;;;9.01;57.20
62680;BME280;68213;40.528;44.712;2023-04-27T05:13:37;80393.69;;;9.01;56.81
62680;BME280;68213;40.528;44.712;2023-04-27T05:14:38;80392.78;;;8.84;57.31
62680;BME280;68213;40.528;44.712;2023-04-27T05:15:38;80336.63;;;8.64;57.19
62680;BME280;68213;40.528;44.712;2023-04-27T05:16:40;80396.19;;;9.11;56.58
62680;BME280;68213;40.528;44.712;2023-04-27T05:17:41;80394.13;;;9.21;56.79
62680;BME280;68213;40.528;44.712;2023-04-27T05:18:41;80395.63;;;9.12;57.50
62680;BME280;68213;40.528;44.712;2023-04-27T05:19:42;80393.03;;;9.00;57.55
62680;BME280;68213;40.528;44.712;2023-04-27T05:20:43;80371.34;;;8.88;57.82
62680;BME280;68213;40.528;44.712;2023-04-27T05:21:44;80392.22;;;8.86;56.81
62680;BME280;68213;40.528;44.712;2023-04-27T05:22:44;80385.16;;;8.88;57.25
62680;BME280;68213;40.528;44.712;2023-04-27T05:23:45;80393.03;;;8.88;57.39
62680;BME280;68213;40.528;44.712;2023-04-27T05:24:46;80391.78;;;8.89;57.06
62680;BME280;68213;40.528;44.712;2023-04-27T05:25:46;80396.19;;;8.87;56.48
62680;BME280;68213;40.528;44.712;2023-04-27T05:26:47;80384.25;;;8.72;56.84
62680;BME280;68213;40.528;44.712;2023-04-27T05:27:48;80390.72;;;8.59;56.79
62680;BME280;68213;40.528;44.712;2023-04-27T05:28:49;80391.66;;;8.76;57.02
62680;BME280;68213;40.528;44.712;2023-04-27T05:29:50;80386.19;;;8.83;56.44
62680;BME280;68213;40.528;44.712;2023-04-27T05:30:51;80382.09;;;8.80;56.29
62680;BME280;68213;40.528;44.712;2023-04-27T05:31:51;80381.97;;;8.78;56.38
62680;BME280;68213;40.528;44.712;2023-04-27T05:32:53;80385.25;;;8.79;56.91
62680;BME280;68213;40.528;44.712;2023-04-27T05:33:54;80385.25;;;8.91;56.48
62680;BME280;68213;40.528;44.712;2023-04-27T05:34:54;80384.34;;;8.98;55.44
62680;BME280;68213;40.528;44.712;2023-04-27T05:35:55;80384.34;;;8.98;55.42
62680;BME280;68213;40.528;44.712;2023-04-27T05:36:56;80374.56;;;8.98;55.06
62680;BME280;68213;40.528;44.712;2023-04-27T05:37:57;80379.09;;;9.10;55.19
62680;BME280;68213;40.528;44.712;2023-04-27T05:38:57;80380.22;;;9.18;54.58
62680;BME280;68213;40.528;44.712;2023-04-27T05:39:58;80358.09;;;9.10;54.38
62680;BME280;68213;40.528;44.712;2023-04-27T05:40:59;80370.66;;;9.23;54.23
62680;BME280;68213;40.528;44.712;2023-04-27T05:42:00;80386.91;;;9.33;54.27
62680;BME280;68213;40.528;44.712;2023-04-27T05:43:02;80374.00;;;9.49;54.25
62680;BME280;68213;40.528;44.712;2023-04-27T05:44:07;80371.91;;;9.60;54.08
62680;BME280;68213;40.528;44.712;2023-04-27T05:45:08;80369.84;;;9.70;53.99
62680;BME280;68213;40.528;44.712;2023-04-27T05:46:12;80372.19;;;9.78;53.57
62680;BME280;68213;40.528;44.712;2023-04-27T05:47:13;80370.69;;;9.87;54.55
62680;BME280;68213;40.528;44.712;2023-04-27T05:48:14;80372.44;;;9.82;54.14
62680;BME280;68213;40.528;44.712;2023-04-27T05:49:15;80374.06;;;10.01;54.06
62680;BME280;68213;40.528;44.712;2023-04-27T05:50:15;80365.81;;;10.07;53.10
62680;BME280;68213;40.528;44.712;2023-04-27T05:51:16;80362.50;;;10.06;53.48
62680;BME280;68213;40.528;44.712;2023-04-27T05:52:18;80368.38;;;10.19;52.94
62680;BME280;68213;40.528;44.712;2023-04-27T05:53:19;80378.03;;;10.28;52.03
62680;BME280;68213;40.528;44.712;2023-04-27T05:54:19;80355.19;;;10.30;51.84
62680;BME280;68213;40.528;44.712;2023-04-27T05:55:20;80338.25;;;10.34;51.91
62680;BME280;68213;40.528;44.712;2023-04-27T05:56:21;80345.22;;;10.41;52.74
62680;BME280;68213;40.528;44.712;2023-04-27T05:57:22;80366.09;;;10.78;51.73
62680;BME280;68213;40.528;44.712;2023-04-27T05:58:23;80359.59;;;10.79;49.95
62680;BME280;68213;40.528;44.712;2023-04-27T05:59:24;80370.13;;;10.93;49.95
62680;BME280;68213;40.528;44.712;2023-04-27T06:00:24;80379.19;;;11.04;49.83
62680;BME280;68213;40.528;44.712;2023-04-27T06:01:25;80379.28;;;11.20;49.48
62680;BME280;68213;40.528;44.712;2023-04-27T06:02:26;80371.00;;;11.40;49.38
62680;BME280;68213;40.528;44.712;2023-04-27T06:03:28;80374.59;;;11.61;45.08
62680;BME280;68213;40.528;44.712;2023-04-27T06:04:28;80377.91;;;11.75;43.43
62680;BME280;68213;40.528;44.712;2023-04-27T06:05:32;80376.19;;;11.96;43.69
62680;BME280;68213;40.528;44.712;2023-04-27T06:06:33;80380.00;;;12.06;43.07
62680;BME280;68213;40.528;44.712;2023-04-27T06:07:34;80377.41;;;12.22;42.59
62680;BME280;68213;40.528;44.712;2023-04-27T06:08:36;80370.34;;;12.41;40.75
62680;BME280;68213;40.528;44.712;2023-04-27T06:09:39;80370.25;;;12.55;40.86
62680;BME280;68213;40.528;44.712;2023-04-27T06:10:42;80376.00;;;12.65;42.16
62680;BME280;68213;40.528;44.712;2023-04-27T06:11:42;80380.09;;;12.68;41.87
62680;BME280;68213;40.528;44.712;2023-04-27T06:12:44;80372.09;;;12.66;42.85
62680;BME280;68213;40.528;44.712;2023-04-27T06:13:44;80361.34;;;12.62;40.36
62680;BME280;68213;40.528;44.712;2023-04-27T06:14:45;80372.09;;;12.66;42.21
62680;BME280;68213;40.528;44.712;2023-04-27T06:15:46;80373.88;;;12.78;41.67
62680;BME280;68213;40.528;44.712;2023-04-27T06:16:47;80371.06;;;12.74;40.50
62680;BME280;68213;40.528;44.712;2023-04-27T06:17:48;80377.38;;;12.82;41.42
62680;BME280;68213;40.528;44.712;2023-04-27T06:18:49;80381.38;;;12.67;40.52
62680;BME280;68213;40.528;44.712;2023-04-27T06:19:50;80385.06;;;12.46;41.37
62680;BME280;68213;40.528;44.712;2023-04-27T06:20:51;80372.78;;;12.37;41.80
62680;BME280;68213;40.528;44.712;2023-04-27T06:21:53;80368.56;;;12.16;43.54
62680;BME280;68213;40.528;44.712;2023-04-27T06:22:54;80354.44;;;12.09;43.29
62680;BME280;68213;40.528;44.712;2023-04-27T06:23:56;80376.06;;;12.21;43.02
62680;BME280;68213;40.528;44.712;2023-04-27T06:24:57;80385.75;;;12.17;42.49
62680;BME280;68213;40.528;44.712;2023-04-27T06:26:00;80374.91;;;12.11;42.47
62680;BME280;68213;40.528;44.712;2023-04-27T06:27:01;80383.56;;;12.27;42.07
62680;BME280;68213;40.528;44.712;2023-04-27T06:28:02;80378.38;;;12.29;42.40
62680;BME280;68213;40.528;44.712;2023-04-27T06:29:03;80383.00;;;12.15;40.46
62680;BME280;68213;40.528;44.712;2023-04-27T06:30:07;80385.59;;;11.99;41.06
62680;BME280;68213;40.528;44.712;2023-04-27T06:31:08;80385.97;;;11.93;41.26
62680;BME280;68213;40.528;44.712;2023-04-27T06:32:09;80384.50;;;11.90;41.61
62680;BME280;68213;40.528;44.712;2023-04-27T06:33:09;80383.63;;;11.99;41.07
62680;BME280;68213;40.528;44.712;2023-04-27T06:34:10;80405.47;;;11.88;41.19
62680;BME280;68213;40.528;44.712;2023-04-27T06:35:11;80399.09;;;11.63;41.48
62680;BME280;68213;40.528;44.712;2023-04-27T06:36:12;80398.97;;;11.47;42.05
62680;BME280;68213;40.528;44.712;2023-04-27T06:37:12;80353.38;;;11.01;42.72
62680;BME280;68213;40.528;44.712;2023-04-27T06:38:14;80398.22;;;11.31;42.40
62680;BME280;68213;40.528;44.712;2023-04-27T06:39:15;80408.53;;;11.13;42.69
62680;BME280;68213;40.528;44.712;2023-04-27T06:40:16;80385.22;;;10.93;41.65
62680;BME280;68213;40.528;44.712;2023-04-27T06:41:17;80400.25;;;11.04;41.05
62680;BME280;68213;40.528;44.712;2023-04-27T06:42:18;80406.56;;;11.13;42.23
62680;BME280;68213;40.528;44.712;2023-04-27T06:43:18;80400.44;;;11.08;42.00
62680;BME280;68213;40.528;44.712;2023-04-27T06:44:19;80389.25;;;11.08;42.23
62680;BME280;68213;40.528;44.712;2023-04-27T06:45:20;80399.75;;;11.22;41.19
62680;BME280;68213;40.528;44.712;2023-04-27T06:46:21;80384.84;;;11.13;41.10
62680;BME280;68213;40.528;44.712;2023-04-27T06:47:22;80399.66;;;11.34;41.67
62680;BME280;68213;40.528;44.712;2023-04-27T06:48:22;80410.59;;;11.28;41.72
62680;BME280;68213;40.528;44.712;2023-04-27T06:49:23;80405.78;;;11.10;42.04
62680;BME280;68213;40.528;44.712;2023-04-27T06:50:24;80409.28;;;11.01;42.08
62680;BME280;68213;40.528;44.712;2023-04-27T06:51:25;80395.53;;;10.89;42.99
62680;BME280;68213;40.528;44.712;2023-04-27T06:52:26;80394.69;;;10.98;43.23
62680;BME280;68213;40.528;44.712;2023-04-27T06:53:26;80397.22;;;10.96;43.40
62680;BME280;68213;40.528;44.712;2023-04-27T06:54:27;80387.09;;;11.04;43.76
62680;BME280;68213;40.528;44.712;2023-04-27T06:55:28;80381.44;;;11.10;43.41
62680;BME280;68213;40.528;44.712;2023-04-27T06:56:28;80395.88;;;11.09;43.35
62680;BME280;68213;40.528;44.712;2023-04-27T06:57:29;80399.53;;;11.04;43.23
62680;BME280;68213;40.528;44.712;2023-04-27T06:58:30;80402.28;;;11.06;43.13
62680;BME280;68213;40.528;44.712;2023-04-27T06:59:31;80390.13;;;11.13;43.27
62680;BME280;68213;40.528;44.712;2023-04-27T07:00:32;80400.44;;;11.08;42.75
62680;BME280;68213;40.528;44.712;2023-04-27T07:01:32;80396.53;;;11.09;43.24
62680;BME280;68213;40.528;44.712;2023-04-27T07:02:33;80403.91;;;10.99;43.26
62680;BME280;68213;40.528;44.712;2023-04-27T07:03:34;80409.41;;;11.03;43.63
62680;BME280;68213;40.528;44.712;2023-04-27T07:04:35;80409.19;;;10.99;43.79
62680;BME280;68213;40.528;44.712;2023-04-27T07:05:37;80417.06;;;10.99;43.47
62680;BME280;68213;40.528;44.712;2023-04-27T07:06:38;80377.13;;;11.03;44.14
62680;BME280;68213;40.528;44.712;2023-04-27T07:07:38;80399.47;;;11.16;44.23
62680;BME280;68213;40.528;44.712;2023-04-27T07:08:41;80396.16;;;11.29;44.27
62680;BME280;68213;40.528;44.712;2023-04-27T07:09:42;80393.03;;;11.47;44.17
62680;BME280;68213;40.528;44.712;2023-04-27T07:10:43;80379.50;;;11.52;44.07
62680;BME280;68213;40.528;44.712;2023-04-27T07:11:43;80393.59;;;11.59;43.73
62680;BME280;68213;40.528;44.712;2023-04-27T07:12:45;80372.09;;;11.49;43.52
62680;BME280;68213;40.528;44.712;2023-04-27T07:13:46;80409.00;;;11.65;43.53
62680;BME280;68213;40.528;44.712;2023-04-27T07:14:46;80402.00;;;11.69;42.60
62680;BME280;68213;40.528;44.712;2023-04-27T07:15:54;80418.38;;;11.68;42.95
62680;BME280;68213;40.528;44.712;2023-04-27T07:16:57;80370.41;;;11.55;43.59
62680;BME280;68213;40.528;44.712;2023-04-27T07:17:57;80399.25;;;11.81;43.22
62680;BME280;68213;40.528;44.712;2023-04-27T07:18:58;80383.41;;;11.95;42.46
62680;BME280;68213;40.528;44.712;2023-04-27T07:20:02;80402.13;;;12.15;42.84
62680;BME280;68213;40.528;44.712;2023-04-27T07:21:04;80431.63;;;12.12;41.96
62680;BME280;68213;40.528;44.712;2023-04-27T07:22:06;80441.97;;;11.80;42.03
62680;BME280;68213;40.528;44.712;2023-04-27T07:23:08;80395.75;;;11.77;42.19
62680;BME280;68213;40.528;44.712;2023-04-27T07:24:10;80406.88;;;11.75;42.68
62680;BME280;68213;40.528;44.712;2023-04-27T07:25:11;80433.38;;;11.79;40.60
62680;BME280;68213;40.528;44.712;2023-04-27T07:26:11;80409.50;;;11.61;40.81
62680;BME280;68213;40.528;44.712;2023-04-27T07:27:12;80394.31;;;11.59;41.75
62680;BME280;68213;40.528;44.712;2023-04-27T07:28:14;80421.19;;;11.72;41.63
62680;BME280;68213;40.528;44.712;2023-04-27T07:29:15;80402.28;;;11.75;41.24
62680;BME280;68213;40.528;44.712;2023-04-27T07:30:16;80406.56;;;11.97;40.89
62680;BME280;68213;40.528;44.712;2023-04-27T07:31:17;80415.53;;;12.05;40.72
62680;BME280;68213;40.528;44.712;2023-04-27T07:32:18;80393.00;;;12.02;40.72
62680;BME280;68213;40.528;44.712;2023-04-27T07:33:18;80401.34;;;12.13;40.73